Time;durP1;ratioP1;P1;durP2;ratioP2;P2;SDS_P1;SDS_P2;PMS_P1;PMS_P2;Temp;Humidity;BMP_temperature;BMP_pressure;BME280_temperature;BME280_humidity;BME280_pressure;Samples;Min_cycle;Max_cycle;Signal;HPM_P1;HPM_P2
2021/04/23 00:00:22;;;;;;;11.43;4.93;;;;;;;4.38;53.88;96014.38;5031236;28;20560;-60
2021/04/23 00:02:47;;;;;;;10.40;4.28;;;;;;;4.34;53.64;96016.69;5031222;28;20042;-60
2021/04/23 00:05:14;;;;;;;7.82;4.43;;;;;;;4.27;53.96;96005.53;5033433;28;20080;-60
2021/04/23 00:07:39;;;;;;;7.80;4.20;;;;;;;4.16;53.96;95998.53;5031255;28;20549;-60
2021/04/23 00:10:14;;;;;;;11.60;4.72;;;;;;;4.13;54.39;95999.00;5031242;28;20049;-60
2021/04/23 00:12:40;;;;;;;9.18;4.20;;;;;;;4.07;55.17;96003.41;5046452;28;20487;-60
2021/04/23 00:15:11;;;;;;;9.45;4.43;;;;;;;4.17;55.92;96019.34;5031260;28;20091;-60
2021/04/23 00:17:37;;;;;;;10.00;4.03;;;;;;;4.09;54.89;96011.06;5045307;28;20383;-60
2021/04/23 00:20:11;;;;;;;10.38;4.90;;;;;;;3.82;54.96;95971.44;5031530;28;20092;-60
2021/04/23 00:22:36;;;;;;;7.75;3.80;;;;;;;4.06;55.05;96007.06;5030823;28;20048;-60
2021/04/23 00:25:04;;;;;;;6.22;3.90;;;;;;;3.97;55.28;95995.34;5046268;28;20550;-61
2021/04/23 00:27:29;;;;;;;7.70;4.00;;;;;;;4.02;55.09;96003.31;5030589;28;20073;-60
2021/04/23 00:29:55;;;;;;;8.00;4.05;;;;;;;3.99;55.77;96008.25;5030851;28;20061;-61
2021/04/23 00:35:04;;;;;;;8.63;4.15;;;;;;;3.96;56.00;96017.47;5030090;28;20106;-60
2021/04/23 00:37:30;;;;;;;10.65;4.50;;;;;;;3.85;57.13;96007.81;5029060;28;20041;-60
2021/04/23 00:39:55;;;;;;;8.50;4.30;;;;;;;3.83;57.37;96012.50;5030107;28;20073;-60
2021/04/23 00:42:20;;;;;;;7.72;4.43;;;;;;;3.83;56.69;96004.59;5030326;28;20116;-61
2021/04/23 00:44:46;;;;;;;7.88;4.97;;;;;;;3.76;56.51;95991.63;5030608;28;20037;-60
2021/04/23 00:47:11;;;;;;;8.40;4.72;;;;;;;3.87;56.36;96011.00;5030945;28;20022;-61
2021/04/23 00:49:37;;;;;;;10.23;5.18;;;;;;;3.85;56.96;96005.19;5030447;28;20540;-60
2021/04/23 00:52:03;;;;;;;6.03;4.47;;;;;;;3.71;57.15;95996.00;5030239;28;20044;-60
2021/04/23 00:54:29;;;;;;;8.65;4.35;;;;;;;3.80;56.97;96015.63;5030284;28;20037;-61
2021/04/23 00:56:55;;;;;;;7.72;4.28;;;;;;;3.77;57.15;96010.84;5030134;28;20045;-60
2021/04/23 00:59:21;;;;;;;8.65;5.15;;;;;;;3.60;57.47;95990.59;5045465;28;20095;-61
2021/04/23 01:02:01;;;;;;;9.52;4.78;;;;;;;3.72;57.58;96013.38;5047339;28;20025;-60
2021/04/23 01:04:29;;;;;;;9.02;5.22;;;;;;;3.68;58.09;96014.88;5030182;28;20038;-61
2021/04/23 01:06:54;;;;;;;7.10;4.30;;;;;;;3.55;58.26;96002.84;5045098;28;20475;-61
2021/04/23 01:09:23;;;;;;;10.18;4.60;;;;;;;3.55;58.52;96003.66;5030025;28;20175;-61
2021/04/23 01:11:51;;;;;;;16.98;4.80;;;;;;;3.59;58.63;96014.50;5045064;28;20543;-60
2021/04/23 01:14:17;;;;;;;8.80;4.78;;;;;;;3.57;58.73;96019.97;5032029;28;20524;-62
2021/04/23 01:16:44;;;;;;;8.27;4.65;;;;;;;3.57;58.97;96011.31;5029615;28;20068;-61
2021/04/23 01:19:13;;;;;;;11.23;4.82;;;;;;;3.30;58.72;95980.34;5029779;28;20045;-61
2021/04/23 01:21:40;;;;;;;9.95;4.75;;;;;;;3.31;58.59;95987.19;5044799;28;20049;-60
2021/04/23 01:24:08;;;;;;;14.77;4.93;;;;;;;3.48;58.97;96015.34;5029877;28;20123;-60
2021/04/23 01:26:38;;;;;;;10.80;4.80;;;;;;;3.42;58.67;96011.03;5045149;28;20391;-61
2021/04/23 01:29:05;;;;;;;8.52;4.60;;;;;;;3.39;58.68;96015.75;5046417;28;20041;-60
2021/04/23 01:31:34;;;;;;;10.48;4.90;;;;;;;3.09;59.52;95975.78;5029557;28;20092;-60
2021/04/23 01:34:27;;;;;;;11.45;5.18;;;;;;;2.71;59.05;95924.63;5029669;28;20046;-60
2021/04/23 01:36:53;;;;;;;11.02;4.30;;;;;;;3.30;60.05;96024.25;5029338;28;20049;-60
2021/04/23 01:39:22;;;;;;;9.10;4.40;;;;;;;3.22;60.25;96014.09;5029267;28;20556;-60
2021/04/23 01:41:49;;;;;;;8.98;4.35;;;;;;;3.28;60.21;96027.13;5029334;28;20127;-60
2021/04/23 01:44:16;;;;;;;10.50;4.85;;;;;;;3.26;59.84;96020.50;5031531;28;20033;-60
2021/04/23 01:46:42;;;;;;;10.38;4.70;;;;;;;3.15;60.05;96016.09;5028928;28;20517;-61
2021/04/23 01:49:11;;;;;;;10.45;4.70;;;;;;;3.09;60.18;96009.94;5044547;28;20037;-60
2021/04/23 01:51:39;;;;;;;9.32;5.38;;;;;;;3.12;60.69;96020.78;5029013;28;20041;-60
2021/04/23 01:54:07;;;;;;;9.73;4.63;;;;;;;3.16;60.65;96030.81;5029382;28;20054;-60
2021/04/23 01:56:32;;;;;;;7.80;4.70;;;;;;;3.11;60.82;96029.69;5029323;28;20029;-60
2021/04/23 01:58:58;;;;;;;11.63;4.60;;;;;;;2.98;60.45;96008.97;5030609;28;20037;-60
2021/04/23 02:01:23;;;;;;;11.18;4.30;;;;;;;2.96;60.95;96012.84;5028929;28;20041;-60
2021/04/23 02:03:49;;;;;;;9.40;4.60;;;;;;;3.02;61.34;96032.94;5029214;28;20033;-60
2021/04/23 02:06:14;;;;;;;5.95;4.63;;;;;;;2.85;60.95;96012.66;5044382;28;20049;-60
2021/04/23 02:08:40;;;;;;;6.55;4.03;;;;;;;3.03;61.19;96034.53;5028955;28;20503;-60
2021/04/23 02:11:12;;;;;;;6.32;4.28;;;;;;;3.02;60.96;96036.38;5045777;28;20172;-60
2021/04/23 02:13:39;;;;;;;7.90;4.20;;;;;;;2.91;61.03;96024.06;5043351;28;20041;-60
2021/04/23 02:16:10;;;;;;;9.00;4.10;;;;;;;2.98;61.03;96031.81;5028594;28;20109;-60
2021/04/23 02:18:36;;;;;;;9.23;4.50;;;;;;;2.96;61.22;96028.59;5043926;28;20041;-60
2021/04/23 02:21:03;;;;;;;9.38;4.97;;;;;;;2.94;60.99;96023.59;5028647;28;20073;-60
2021/04/23 02:23:29;;;;;;;12.52;4.95;;;;;;;2.73;60.95;95995.34;5028608;28;20065;-60
2021/04/23 02:25:55;;;;;;;8.45;4.57;;;;;;;2.89;60.95;96025.31;5030812;28;20060;-60
2021/04/23 02:28:21;;;;;;;10.27;4.75;;;;;;;2.78;61.53;96013.81;5028540;28;20435;-60
2021/04/23 02:31:00;;;;;;;6.35;4.35;;;;;;;2.84;61.51;96031.28;5028876;28;20042;-60
2021/04/23 02:33:26;;;;;;;6.20;4.18;;;;;;;2.85;61.86;96041.56;5028656;28;20053;-60
2021/04/23 02:35:54;;;;;;;6.88;4.65;;;;;;;2.84;61.46;96033.91;5028955;28;20152;-60
2021/04/23 02:38:19;;;;;;;9.75;4.28;;;;;;;2.79;61.03;96036.44;5030375;28;20080;-60
2021/04/23 02:40:46;;;;;;;6.45;4.65;;;;;;;2.75;61.20;96030.84;5028168;28;20037;-60
2021/04/23 02:43:16;;;;;;;7.45;5.05;;;;;;;2.72;61.49;96035.78;5028493;28;20179;-60
2021/04/23 02:45:42;;;;;;;7.93;4.63;;;;;;;2.69;61.61;96028.34;5028672;28;20053;-60
2021/04/23 02:48:10;;;;;;;9.95;4.80;;;;;;;2.56;61.55;96013.66;5028624;28;20042;-60
2021/04/23 02:50:37;;;;;;;7.55;4.22;;;;;;;2.63;61.23;96034.53;5028324;28;20637;-60
2021/04/23 02:53:06;;;;;;;10.18;4.20;;;;;;;2.60;61.78;96033.16;5030237;28;20032;-60
2021/04/23 02:55:32;;;;;;;8.15;4.30;;;;;;;2.60;61.66;96028.69;5028380;28;20048;-60
2021/04/23 02:58:06;;;;;;;9.48;4.40;;;;;;;2.49;62.30;96019.00;5028219;28;20132;-60
2021/04/23 03:00:35;;;;;;;9.48;4.50;;;;;;;2.50;61.85;96019.81;5027083;28;20487;-60
2021/04/23 03:03:03;;;;;;;9.88;4.85;;;;;;;2.58;62.51;96043.91;5043492;28;20148;-60
2021/04/23 03:05:28;;;;;;;7.35;5.03;;;;;;;2.49;62.55;96021.63;5027238;28;20048;-59
2021/04/23 03:07:57;;;;;;;8.55;4.30;;;;;;;2.51;62.48;96024.06;5028633;28;20029;-60
2021/04/23 03:10:26;;;;;;;8.88;4.68;;;;;;;2.57;62.51;96038.88;5043589;28;20040;-60
2021/04/23 03:12:53;;;;;;;12.00;4.90;;;;;;;2.55;62.28;96043.56;5043372;28;20032;-60
2021/04/23 03:15:21;;;;;;;6.93;4.85;;;;;;;2.56;62.50;96048.59;5028290;28;20033;-60
2021/04/23 03:17:47;;;;;;;9.93;4.75;;;;;;;2.52;62.25;96042.19;5043232;28;20053;-60
2021/04/23 03:20:16;;;;;;;9.10;5.03;;;;;;;2.47;62.37;96036.84;5028629;28;20029;-60
2021/04/23 03:22:42;;;;;;;7.05;4.20;;;;;;;2.42;62.27;96023.59;5027991;28;20053;-60
2021/04/23 03:25:09;;;;;;;6.53;4.20;;;;;;;2.39;62.38;96028.50;5028091;28;20053;-60
2021/04/23 03:27:35;;;;;;;8.05;4.35;;;;;;;2.39;62.17;96037.19;5043110;28;20092;-60
2021/04/23 03:30:00;;;;;;;8.70;4.93;;;;;;;2.13;61.97;96001.72;5043233;28;20037;-60
2021/04/23 03:32:27;;;;;;;8.77;5.13;;;;;;;2.25;62.26;96022.69;5043161;28;20075;-60
2021/04/23 03:34:52;;;;;;;12.13;5.20;;;;;;;2.17;62.44;96013.34;5030189;28;20050;-59
2021/04/23 03:37:18;;;;;;;12.20;4.57;;;;;;;2.22;62.21;96031.03;5043129;28;20129;-60
2021/04/23 03:39:43;;;;;;;9.10;5.28;;;;;;;2.27;62.26;96039.03;5027673;28;20053;-60
2021/04/23 03:42:09;;;;;;;13.52;5.53;;;;;;;2.15;62.34;96025.09;5027837;28;20107;-60
2021/04/23 03:44:34;;;;;;;10.00;4.50;;;;;;;2.11;62.42;96024.78;5028075;28;20033;-59
2021/04/23 03:46:59;;;;;;;10.32;5.05;;;;;;;2.16;62.56;96034.59;5029710;28;20029;-60
2021/04/23 03:49:25;;;;;;;7.95;4.90;;;;;;;1.99;62.58;96014.25;5027907;28;20037;-59
2021/04/23 03:51:50;;;;;;;10.88;4.95;;;;;;;2.16;63.03;96040.63;5030444;28;20041;-60
2021/04/23 03:54:16;;;;;;;9.63;4.95;;;;;;;2.20;63.05;96044.41;5031694;28;20045;-60
2021/04/23 03:56:41;;;;;;;9.00;5.38;;;;;;;2.16;63.09;96037.22;5031197;28;20473;-60
2021/04/23 03:59:07;;;;;;;13.98;5.45;;;;;;;2.23;63.18;96048.38;5033253;28;20109;-60
2021/04/23 04:01:34;;;;;;;11.27;4.97;;;;;;;2.23;63.09;96051.81;5046381;28;20045;-60
2021/04/23 04:04:00;;;;;;;6.15;4.63;;;;;;;2.22;63.20;96036.28;5031336;28;20037;-60
2021/04/23 04:06:26;;;;;;;7.38;4.68;;;;;;;2.13;63.24;96025.31;5031258;28;20176;-60
2021/04/23 04:08:52;;;;;;;9.73;5.03;;;;;;;2.24;63.09;96049.97;5046163;28;20490;-60
2021/04/23 04:11:18;;;;;;;14.27;5.75;;;;;;;2.26;63.19;96047.94;5031625;28;20160;-60
2021/04/23 04:13:44;;;;;;;6.72;4.72;;;;;;;2.29;63.02;96048.25;5031074;28;20075;-60
2021/04/23 04:16:09;;;;;;;11.18;4.85;;;;;;;2.28;62.93;96051.91;5030994;28;20455;-59
2021/04/23 04:18:34;;;;;;;9.10;5.10;;;;;;;2.33;63.32;96052.03;5030774;28;20052;-59
2021/04/23 04:21:00;;;;;;;8.80;5.15;;;;;;;2.26;62.66;96046.09;5030807;28;20483;-59
2021/04/23 04:23:26;;;;;;;13.30;5.07;;;;;;;2.34;62.77;96063.31;5030818;28;20526;-59
2021/04/23 04:25:57;;;;;;;8.10;4.72;;;;;;;2.33;62.54;96056.47;5033003;28;20033;-59
2021/04/23 04:28:24;;;;;;;10.07;5.55;;;;;;;2.40;62.76;96072.13;5030756;28;20037;-59
2021/04/23 04:30:50;;;;;;;7.35;4.82;;;;;;;2.34;62.21;96051.00;5030862;28;20492;-60
2021/04/23 04:33:16;;;;;;;10.02;4.63;;;;;;;2.52;62.91;96078.97;5030661;28;20037;-59
2021/04/23 04:35:42;;;;;;;21.17;5.88;;;;;;;2.59;62.59;96076.22;5046034;28;20045;-59
2021/04/23 04:38:10;;;;;;;15.57;5.32;;;;;;;2.74;62.26;96073.91;5032284;28;20029;-59
2021/04/23 04:40:37;;;;;;;13.35;4.93;;;;;;;2.92;61.92;96074.78;5030400;28;20041;-59
2021/04/23 04:43:05;;;;;;;11.00;4.93;;;;;;;3.01;61.51;96081.28;5030396;28;20078;-59
2021/04/23 04:45:31;;;;;;;9.52;5.25;;;;;;;3.22;61.25;96093.78;5030577;28;20185;-59
2021/04/23 04:47:57;;;;;;;7.53;4.35;;;;;;;3.26;61.04;96066.00;5030022;28;20139;-60
2021/04/23 04:50:31;;;;;;;9.00;4.82;;;;;;;3.56;60.25;96092.06;5045598;28;20103;-61
2021/04/23 04:52:58;;;;;;;14.07;4.88;;;;;;;3.74;60.19;96085.81;5032257;28;20025;-61
2021/04/23 04:55:27;;;;;;;7.43;4.65;;;;;;;3.90;59.89;96094.75;5030321;28;20060;-60
2021/04/23 04:57:54;;;;;;;10.13;5.20;;;;;;;3.97;59.09;96087.47;5030082;28;20041;-60
2021/04/23 05:00:20;;;;;;;10.80;4.47;;;;;;;4.15;59.05;96092.53;5030307;28;20053;-65
2021/04/23 05:02:46;;;;;;;11.00;5.03;;;;;;;4.38;58.81;96103.91;5029666;28;20038;-61
2021/04/23 05:05:12;;;;;;;11.73;4.78;;;;;;;4.48;58.54;96100.66;5032266;28;20059;-64
2021/04/23 05:07:37;;;;;;;6.32;4.72;;;;;;;4.49;58.13;96089.84;5030057;28;20124;-62
2021/04/23 05:10:04;;;;;;;12.93;4.93;;;;;;;4.75;58.14;96113.94;5028707;28;20379;-61
2021/04/23 05:12:29;;;;;;;13.57;5.80;;;;;;;4.38;57.81;96046.78;5029740;28;20049;-59
2021/04/23 05:14:55;;;;;;;10.75;6.22;;;;;;;4.68;57.53;96080.66;5028451;28;20046;-70
2021/04/23 05:17:20;;;;;;;11.38;5.70;;;;;;;4.93;57.61;96119.72;5031668;28;20026;-63
2021/04/23 05:19:46;;;;;;;9.45;5.20;;;;;;;4.91;57.69;96111.28;5029605;28;20045;-62
2021/04/23 05:22:11;;;;;;;10.50;5.45;;;;;;;4.92;57.70;96107.59;5028158;28;20506;-63
2021/04/23 05:24:36;;;;;;;10.75;5.78;;;;;;;5.05;57.76;96122.25;5028240;28;20113;-62
2021/04/23 05:27:02;;;;;;;11.70;5.90;;;;;;;5.05;57.65;96106.41;5029507;28;20033;-65
2021/04/23 05:29:27;;;;;;;15.00;6.00;;;;;;;5.19;57.32;96123.47;5029360;28;20121;-63
2021/04/23 05:31:53;;;;;;;9.95;5.95;;;;;;;5.15;57.72;96100.47;5031576;28;20022;-63
2021/04/23 05:34:19;;;;;;;9.88;6.05;;;;;;;5.18;57.82;96090.25;5029550;28;20053;-61
2021/04/23 05:36:46;;;;;;;9.00;5.95;;;;;;;5.26;57.61;96101.41;5029360;28;20025;-62
2021/04/23 05:39:11;;;;;;;11.40;6.45;;;;;;;5.57;57.67;96135.00;5029208;28;20372;-61
2021/04/23 05:41:38;;;;;;;11.15;7.20;;;;;;;5.43;58.09;96102.13;5029148;28;20021;-66
2021/04/23 05:44:05;;;;;;;14.27;7.30;;;;;;;5.65;58.16;96129.28;5031355;28;20022;-65
2021/04/23 05:46:31;;;;;;;8.48;6.57;;;;;;;5.92;58.27;96150.44;5029005;28;20033;-66
2021/04/23 05:48:56;;;;;;;10.88;6.72;;;;;;;5.94;57.67;96132.50;5028916;28;20103;-66
2021/04/23 05:51:22;;;;;;;11.52;7.57;;;;;;;6.14;57.76;96147.75;5028736;28;20038;-65
2021/04/23 05:53:47;;;;;;;10.57;7.55;;;;;;;6.09;58.00;96116.00;5044680;28;20394;-68
2021/04/23 05:56:12;;;;;;;11.32;7.38;;;;;;;6.21;58.64;96119.28;5031140;28;20025;-68
2021/04/23 05:58:38;;;;;;;9.20;7.68;;;;;;;6.20;58.81;96093.13;5028804;28;20132;-68
2021/04/23 06:01:03;;;;;;;11.88;8.13;;;;;;;6.31;59.00;96091.34;5025103;28;20491;-68
2021/04/23 06:03:29;;;;;;;11.50;8.63;;;;;;;6.77;58.97;96143.47;5025806;28;20540;-67
2021/04/23 06:05:54;;;;;;;8.95;7.90;;;;;;;6.76;58.44;96125.22;5028887;28;20758;-68
2021/04/23 06:08:20;;;;;;;9.68;8.02;;;;;;;6.78;58.68;96115.19;5028699;28;20049;-67
2021/04/23 06:10:47;;;;;;;10.10;7.90;;;;;;;6.61;59.05;96151.56;5030726;28;20022;-67
2021/04/23 06:13:14;;;;;;;10.00;7.50;;;;;;;7.05;58.88;96149.44;5043880;28;20038;-67
2021/04/23 06:15:41;;;;;;;12.93;8.05;;;;;;;7.02;58.53;96126.16;5028024;28;20025;-68
2021/04/23 06:18:07;;;;;;;15.35;8.43;;;;;;;7.29;58.04;96150.63;5028613;28;20446;-70
2021/04/23 06:20:34;;;;;;;11.43;8.65;;;;;;;7.46;57.51;96149.63;5044040;28;20028;-70
2021/04/23 06:23:00;;;;;;;13.77;9.30;;;;;;;7.45;57.52;96132.16;5030607;28;20033;-70
2021/04/23 06:25:27;;;;;;;13.43;8.82;;;;;;;7.50;57.07;96119.75;5044066;28;20168;-71
2021/04/23 06:27:52;;;;;;;13.20;8.35;;;;;;;7.64;56.63;96133.28;5043776;28;20498;-70
2021/04/23 06:30:27;;;;;;;16.35;9.00;;;;;;;7.70;56.57;96119.00;5028830;28;20122;-70
2021/04/23 06:32:57;;;;;;;11.80;8.43;;;;;;;8.02;56.46;96155.88;5028643;28;20060;-68
2021/04/23 06:35:25;;;;;;;11.15;7.57;;;;;;;8.15;56.08;96157.25;5044079;28;20024;-70
2021/04/23 06:37:52;;;;;;;18.73;7.68;;;;;;;8.27;55.92;96160.44;5030763;28;20032;-71
2021/04/23 06:40:18;;;;;;;11.30;7.80;;;;;;;8.33;55.07;96156.72;5028527;28;20053;-68
2021/04/23 06:42:44;;;;;;;10.93;7.57;;;;;;;8.44;53.87;96154.09;5028250;28;20033;-68
2021/04/23 06:45:13;;;;;;;10.07;7.65;;;;;;;8.53;53.96;96161.28;5028557;28;20038;-69
2021/04/23 06:47:39;;;;;;;16.23;7.43;;;;;;;8.69;53.51;96155.97;5028377;28;20029;-69
2021/04/23 06:50:07;;;;;;;10.23;7.25;;;;;;;8.73;52.40;96155.16;5030259;28;20105;-70
2021/04/23 06:52:32;;;;;;;9.63;6.80;;;;;;;8.64;50.08;96161.25;5028343;28;20034;-70
2021/04/23 06:54:59;;;;;;;15.15;7.35;;;;;;;8.23;51.32;96156.72;5028734;28;20045;-69
2021/04/23 06:57:24;;;;;;;14.55;7.30;;;;;;;8.39;50.71;96152.25;5028156;28;20121;-69
2021/04/23 06:59:49;;;;;;;11.75;6.95;;;;;;;8.71;51.14;96170.56;5027113;28;20055;-70
2021/04/23 07:02:15;;;;;;;7.38;5.60;;;;;;;8.88;50.62;96170.28;5029644;28;20479;-69
2021/04/23 07:04:40;;;;;;;14.57;7.78;;;;;;;9.02;49.73;96158.03;5028596;28;20160;-69
2021/04/23 07:07:05;;;;;;;8.63;6.82;;;;;;;9.14;49.25;96146.34;5026939;28;20037;-68
2021/04/23 07:09:31;;;;;;;11.60;6.38;;;;;;;9.34;48.68;96163.00;5028261;28;20046;-69
2021/04/23 07:11:57;;;;;;;11.95;6.20;;;;;;;9.36;48.27;96149.44;5028308;28;20734;-69
2021/04/23 07:14:23;;;;;;;10.40;6.55;;;;;;;9.43;47.35;96157.94;5027124;28;20083;-68
2021/04/23 07:16:48;;;;;;;9.88;5.72;;;;;;;9.01;46.15;96163.63;5029016;28;20539;-69
2021/04/23 07:19:14;;;;;;;12.30;5.88;;;;;;;9.44;45.96;96174.66;5027981;28;20118;-67
2021/04/23 07:21:39;;;;;;;10.48;5.35;;;;;;;9.64;46.06;96179.91;5027858;28;20057;-67
2021/04/23 07:24:05;;;;;;;9.85;5.03;;;;;;;9.48;43.12;96181.03;5028206;28;20079;-67
2021/04/23 07:26:30;;;;;;;12.27;5.20;;;;;;;9.65;42.81;96168.19;5029415;28;20025;-66
2021/04/23 07:28:56;;;;;;;12.27;6.28;;;;;;;8.76;44.08;96169.75;5033610;28;20018;-68
2021/04/23 07:31:21;;;;;;;10.00;5.20;;;;;;;9.19;43.52;96125.09;5031823;28;20491;-68
2021/04/23 07:33:47;;;;;;;8.52;5.10;;;;;;;9.69;42.58;96163.94;5031856;28;20045;-67
2021/04/23 07:36:12;;;;;;;8.15;4.18;;;;;;;9.66;41.87;96183.06;5046999;28;20079;-66
2021/04/23 07:38:37;;;;;;;7.50;4.88;;;;;;;9.31;41.49;96155.56;5031349;28;20037;-67
2021/04/23 07:41:03;;;;;;;9.43;4.68;;;;;;;9.80;41.39;96186.72;5033874;28;20037;-71
2021/04/23 07:43:28;;;;;;;11.85;5.00;;;;;;;10.08;41.39;96182.63;5046986;28;20495;-69
2021/04/23 07:45:54;;;;;;;11.00;6.15;;;;;;;9.91;41.69;96179.50;5031871;28;20123;-70
2021/04/23 07:48:21;;;;;;;10.20;5.20;;;;;;;10.18;42.02;96157.00;5031739;28;20072;-71
2021/04/23 07:50:48;;;;;;;11.98;5.43;;;;;;;10.19;41.79;96171.91;5047110;28;20049;-73
2021/04/23 07:53:13;;;;;;;12.02;5.03;;;;;;;9.94;41.59;96159.56;5032659;28;20030;-72
2021/04/23 07:55:39;;;;;;;14.02;4.88;;;;;;;9.31;41.88;96187.41;5046464;28;20403;-63
2021/04/23 07:58:05;;;;;;;9.25;4.90;;;;;;;9.10;42.41;96199.16;5031283;28;20046;-64
2021/04/23 08:00:30;;;;;;;7.57;4.75;;;;;;;9.71;41.13;96190.22;5031343;28;20052;-63
2021/04/23 08:02:55;;;;;;;12.73;4.90;;;;;;;10.14;41.98;96170.88;5046432;28;20037;-66
2021/04/23 08:05:22;;;;;;;7.80;4.15;;;;;;;10.33;41.32;96184.31;5031936;28;20021;-62
2021/04/23 08:07:48;;;;;;;10.50;4.55;;;;;;;10.43;40.29;96194.09;5033342;28;20430;-64
2021/04/23 08:10:16;;;;;;;10.30;5.40;;;;;;;10.67;40.10;96199.53;5032445;28;20037;-66
2021/04/23 08:12:41;;;;;;;8.60;4.97;;;;;;;10.84;39.90;96183.16;5032293;28;20033;-67
2021/04/23 08:15:09;;;;;;;11.60;4.97;;;;;;;10.88;38.83;96194.81;5032344;28;20036;-62
2021/04/23 08:17:36;;;;;;;10.38;4.35;;;;;;;11.13;39.06;96181.28;5032006;28;20029;-69
2021/04/23 08:20:06;;;;;;;11.13;4.13;;;;;;;11.36;39.32;96189.56;5033461;28;20030;-63
2021/04/23 08:22:31;;;;;;;11.88;4.50;;;;;;;11.31;37.08;96206.41;5031922;28;20026;-63
2021/04/23 08:24:57;;;;;;;8.68;4.47;;;;;;;10.93;38.23;96190.25;5032209;28;20036;-64
2021/04/23 08:27:22;;;;;;;7.50;4.07;;;;;;;11.05;38.01;96192.53;5031421;28;20148;-62
2021/04/23 08:29:49;;;;;;;9.30;4.85;;;;;;;11.03;37.20;96193.91;5031705;28;20045;-63
2021/04/23 08:32:14;;;;;;;11.23;4.97;;;;;;;10.96;37.25;96185.47;5033449;28;20030;-63
2021/04/23 08:34:40;;;;;;;11.00;4.28;;;;;;;11.33;41.59;96195.47;5031799;28;20033;-61
2021/04/23 08:37:06;;;;;;;11.00;4.50;;;;;;;11.80;37.59;96193.88;5030441;28;20519;-61
2021/04/23 08:39:31;;;;;;;10.13;4.63;;;;;;;12.04;36.24;96199.22;5030127;28;20077;-60
2021/04/23 08:41:57;;;;;;;9.55;4.43;;;;;;;12.23;36.78;96194.66;5031324;28;20511;-60
2021/04/23 08:44:22;;;;;;;9.68;4.20;;;;;;;12.45;36.85;96184.22;5031728;28;20033;-62
2021/04/23 08:46:49;;;;;;;7.10;4.32;;;;;;;12.63;35.29;96179.94;5031948;28;20029;-61
2021/04/23 08:49:16;;;;;;;10.13;4.15;;;;;;;12.71;35.15;96189.16;5031679;28;20034;-65
2021/04/23 08:51:43;;;;;;;13.27;4.97;;;;;;;12.40;34.98;96172.84;5030812;28;20380;-60
2021/04/23 08:54:08;;;;;;;7.47;4.10;;;;;;;11.25;36.94;96177.44;5031258;28;20045;-61
2021/04/23 08:56:34;;;;;;;14.25;4.97;;;;;;;11.63;36.53;96181.81;5030246;28;20033;-61
2021/04/23 08:58:59;;;;;;;8.52;4.25;;;;;;;11.90;36.29;96173.25;5032932;28;20021;-60
2021/04/23 09:01:26;;;;;;;11.95;4.47;;;;;;;12.09;36.01;96175.94;5031096;28;20045;-61
2021/04/23 09:03:51;;;;;;;12.18;4.57;;;;;;;12.19;36.21;96172.34;5031502;28;20033;-60
2021/04/23 09:06:26;;;;;;;7.05;4.10;;;;;;;11.48;35.70;96170.53;5046531;28;20064;-61
2021/04/23 09:09:05;;;;;;;10.32;4.35;;;;;;;12.13;34.57;96182.28;5046242;28;20124;-60
2021/04/23 09:11:43;;;;;;;9.43;4.20;;;;;;;11.64;34.30;96180.72;5046213;28;20029;-64
2021/04/23 09:14:19;;;;;;;7.82;3.90;;;;;;;10.97;35.21;96177.19;5033259;28;20482;-60
2021/04/23 09:16:44;;;;;;;11.73;4.47;;;;;;;11.13;33.91;96197.25;5031428;28;20076;-58
2021/04/23 09:19:25;;;;;;;16.70;4.40;;;;;;;11.06;35.73;96194.16;5030949;28;20061;-59
2021/04/23 09:21:54;;;;;;;9.52;4.47;;;;;;;11.21;35.65;96171.91;5030545;28;20104;-57
2021/04/23 09:24:31;;;;;;;7.32;4.00;;;;;;;11.17;35.84;96186.84;5030943;28;20050;-58
2021/04/23 09:26:59;;;;;;;9.45;4.32;;;;;;;11.25;35.50;96183.56;5030759;28;20056;-59
2021/04/23 09:29:28;;;;;;;9.50;3.97;;;;;;;11.83;34.82;96180.03;5030701;28;20514;-60
2021/04/23 09:31:55;;;;;;;7.90;4.53;;;;;;;11.93;33.93;96191.34;5032628;28;20034;-59
2021/04/23 09:34:21;;;;;;;11.07;5.20;;;;;;;11.63;34.29;96157.03;5030827;28;20127;-60
2021/04/23 09:36:47;;;;;;;9.75;4.70;;;;;;;11.44;34.78;96179.09;5030515;28;20039;-59
2021/04/23 09:39:22;;;;;;;12.68;5.30;;;;;;;10.88;35.73;96184.97;5044986;28;20392;-59
2021/04/23 09:41:56;;;;;;;13.52;4.80;;;;;;;11.87;34.94;96189.78;5030450;28;20045;-58
2021/04/23 09:44:32;;;;;;;9.10;5.15;;;;;;;11.90;35.20;96185.78;5030709;28;20033;-58
2021/04/23 09:47:14;;;;;;;10.27;4.30;;;;;;;11.01;35.06;96188.06;5032236;28;20022;-59
2021/04/23 09:49:42;;;;;;;8.52;4.90;;;;;;;11.66;35.23;96188.44;5029808;28;20180;-60
2021/04/23 09:52:11;;;;;;;11.60;4.95;;;;;;;12.08;33.82;96185.03;5030025;28;20029;-60
2021/04/23 09:54:37;;;;;;;8.77;4.85;;;;;;;11.81;33.91;96187.47;5030286;28;20383;-60
2021/04/23 09:57:13;;;;;;;13.95;4.97;;;;;;;11.89;34.11;96185.00;5030073;28;20036;-62
2021/04/23 09:59:51;;;;;;;8.88;4.75;;;;;;;11.69;34.55;96169.22;5028595;28;20030;-60
2021/04/23 10:02:17;;;;;;;9.88;4.68;;;;;;;12.46;35.40;96172.44;5032096;28;20040;-61
2021/04/23 10:04:43;;;;;;;8.55;4.53;;;;;;;12.77;33.45;96181.88;5028640;28;20124;-61
2021/04/23 10:07:17;;;;;;;11.07;4.68;;;;;;;12.96;33.33;96178.06;5029938;28;20180;-62
2021/04/23 10:09:56;;;;;;;7.68;3.58;;;;;;;12.48;30.89;96172.94;5029875;28;20126;-61
2021/04/23 10:12:32;;;;;;;11.23;3.80;;;;;;;12.13;31.42;96181.47;5045067;28;20048;-61
2021/04/23 10:14:58;;;;;;;8.80;4.28;;;;;;;12.15;32.07;96176.66;5029774;28;20048;-60
2021/04/23 10:17:23;;;;;;;6.45;4.38;;;;;;;12.19;31.98;96170.47;5044811;28;20387;-62
2021/04/23 10:19:49;;;;;;;7.75;3.78;;;;;;;12.50;31.98;96180.69;5046263;28;20051;-61
2021/04/23 10:22:15;;;;;;;11.48;4.55;;;;;;;12.19;31.15;96180.34;5029423;28;20491;-61
2021/04/23 10:24:41;;;;;;;11.20;3.97;;;;;;;12.63;31.33;96152.44;5029379;28;20029;-61
2021/04/23 10:27:07;;;;;;;7.45;4.10;;;;;;;12.45;29.66;96162.88;5028774;28;20045;-61
2021/04/23 10:29:35;;;;;;;8.93;3.35;;;;;;;12.40;29.34;96159.50;5029565;28;20494;-61
2021/04/23 10:32:01;;;;;;;4.78;2.90;;;;;;;11.77;30.14;96165.13;5031467;28;20418;-61
2021/04/23 10:34:27;;;;;;;7.43;3.45;;;;;;;12.04;28.26;96172.53;5044911;28;20083;-60
2021/04/23 10:36:52;;;;;;;9.90;3.80;;;;;;;12.01;29.45;96173.09;5029261;28;20056;-60
2021/04/23 10:39:18;;;;;;;6.07;3.33;;;;;;;11.88;29.78;96169.28;5044417;28;20041;-61
2021/04/23 10:41:43;;;;;;;6.22;2.83;;;;;;;11.77;28.70;96154.44;5029262;28;20088;-61
2021/04/23 10:44:10;;;;;;;9.35;3.42;;;;;;;11.78;27.70;96156.84;5031340;28;20021;-60
2021/04/23 10:46:49;;;;;;;5.63;3.60;;;;;;;12.48;27.66;96162.28;5029778;28;20484;-61
2021/04/23 10:49:15;;;;;;;7.50;2.95;;;;;;;11.79;28.49;96157.63;5029154;28;20069;-61
2021/04/23 10:51:42;;;;;;;10.00;3.20;;;;;;;12.49;28.30;96163.09;5044069;28;20061;-62
2021/04/23 10:54:15;;;;;;;5.28;2.15;;;;;;;12.53;23.91;96164.06;5029462;28;20029;-61
2021/04/23 10:56:50;;;;;;;3.75;2.47;;;;;;;12.69;25.42;96159.28;5029478;28;20041;-62
2021/04/23 10:59:26;;;;;;;6.35;2.25;;;;;;;12.95;25.23;96165.00;5046457;28;20036;-60
2021/04/23 11:01:52;;;;;;;5.35;2.03;;;;;;;13.22;25.33;96142.91;5032907;28;20037;-58
2021/04/23 11:04:21;;;;;;;4.18;2.58;;;;;;;13.46;25.50;96170.25;5033458;28;20070;-58
2021/04/23 11:06:51;;;;;;;4.93;2.95;;;;;;;13.78;26.54;96160.53;5048300;28;20084;-59
2021/04/23 11:09:19;;;;;;;8.25;4.00;;;;;;;13.97;27.46;96155.84;5033231;28;20030;-59
2021/04/23 11:12:08;;;;;;;5.03;3.53;;;;;;;14.14;26.65;96151.75;5033101;28;20029;-59
2021/04/23 11:14:37;;;;;;;6.40;3.05;;;;;;;14.22;26.03;96146.44;5033323;28;20018;-60
2021/04/23 11:17:18;;;;;;;7.15;3.60;;;;;;;13.83;26.26;96147.06;5050350;28;20514;-59
2021/04/23 11:19:45;;;;;;;10.77;4.00;;;;;;;13.74;27.17;96116.75;5047900;28;20107;-60
2021/04/23 11:22:16;;;;;;;8.68;3.35;;;;;;;13.53;25.15;96114.50;5032782;28;20419;-60
2021/04/23 11:25:00;;;;;;;7.40;3.30;;;;;;;12.80;27.79;96142.03;5032826;28;20116;-60
2021/04/23 11:27:26;;;;;;;7.43;4.00;;;;;;;12.58;28.03;96147.97;5032677;28;20049;-58
2021/04/23 11:29:54;;;;;;;7.47;3.28;;;;;;;12.54;27.89;96140.84;5033058;28;20125;-59
2021/04/23 11:32:31;;;;;;;7.72;3.97;;;;;;;12.45;27.93;96135.41;5020546;28;20022;-59
2021/04/23 11:35:09;;;;;;;6.63;3.70;;;;;;;12.61;28.49;96144.75;5013627;28;20062;-60
2021/04/23 11:37:40;;;;;;;11.20;3.72;;;;;;;13.02;28.02;96136.81;5012863;28;20151;-59